Terminal Aerodrome Forecast
Issued by NWS Brownsville, TX

Home | Current Version | Previous Version | Text Only | Print | Product List | Glossary On
Versions: 1 2 3 4 5 6 7 8 9 10 11 12 13 14 15 16 17 18 19 20 21 22 23 24 25 26 27 28 29
000
FTUS44 KBRO 281739
TAFHRL
TAF
KHRL 281739Z 2818/2918 14018KT P6SM SCT035
     FM290400 13010KT P6SM SCT025
      TEMPO 2906/2910 BKN020
     FM291000 13007KT 5SM BR BKN015
     FM291500 14015KT P6SM SCT025=

USA.gov is the U.S. government's official web portal to all federal, state and local government web resources and services.